Latest Weather Observations for Hobart

IDT60801

Issued at 12:02 pm EST Friday 21 September 2018 (issued every 10 minutes, with the page automatically refreshed every 10 minutes)

About weather observations | Map of weather stations | Latest weather observations for TAS | Other Formats
Station Details ID: 094029 Name: HOBART (ELLERSLIE ROAD) Lat: -42.89 Lon: 147.33 Height: 50.5 m
Data from the previous 72 hours. | See also: Recent months at Hobart
Date/Time
EST
Temp
°C
App
Temp
°C
Dew
Point
°C
Rel
Hum
%
Delta-T
°C
Wind Press
QNH
hPa
Press
MSL
hPa
Rain since
9am
mm
Dir  Spd
km/h
Gust
km/h
Spd
kts
Gust
kts
21/12:00pm 17.3 11.8 5.9 47 5.6 NNW 24 41 13 22 1017.5 1017.5 0.0
21/11:40am 16.8 9.8 6.0 49 5.3 NNW 32 50 17 27 1017.8 1017.8 0.0
21/11:30am 16.7 9.8 6.5 51 5.0 NNW 32 46 17 25 1017.8 1017.8 0.0
21/11:00am 16.3 10.9 6.4 52 4.8 NW 24 35 13 19 1018.3 1018.3 0.0
21/10:30am 16.3 11.2 6.2 51 4.9 WNW 22 37 12 20 1018.4 1018.5 0.0
21/10:00am 15.8 11.7 6.3 53 4.6 WNW 17 30 9 16 1018.4 1018.5 0.0
21/09:30am 14.1 8.9 5.5 56 4.1 NNW 22 37 12 20 1018.3 1018.3 0.0
21/09:00am 14.1 8.4 4.9 54 4.3 NW 24 33 13 18 1018.4 1018.5 0.0
21/08:30am 14.1 8.4 4.9 54 4.3 NW 24 41 13 22 1018.2 1018.2 0.0
21/08:00am 14.1 9.3 5.7 57 4.0 NNW 20 33 11 18 1018.2 1018.2 0.0
21/07:30am 13.5 9.3 5.9 60 3.6 NW 17 32 9 17 1018.1 1018.1 0.0
21/07:00am 12.7 8.1 5.6 62 3.3 NNW 19 30 10 16 1017.9 1017.9 0.0
21/06:30am 11.6 7.0 5.7 67 2.7 NNW 19 28 10 15 1017.8 1017.8 0.0
21/06:00am 11.6 7.1 5.9 68 2.7 NNW 19 32 10 17 1017.3 1017.3 0.0
21/05:30am 11.6 7.4 5.9 68 2.7 NNW 17 30 9 16 1017.1 1017.1 0.0
21/05:00am 11.9 7.2 6.0 67 2.8 NNW 20 33 11 18 1017.1 1017.1 0.0
21/04:30am 12.0 6.9 5.9 66 2.9 NNW 22 35 12 19 1016.7 1016.7 0.0
21/04:00am 11.8 7.3 6.1 68 2.7 NNW 19 35 10 19 1016.6 1016.6 0.0
21/03:30am 11.8 7.1 6.1 68 2.7 NNW 20 28 11 15 1016.4 1016.4 0.0
21/03:00am 11.8 6.0 6.1 68 2.7 N 26 39 14 21 1016.2 1016.2 0.0
21/02:30am 11.4 6.9 6.3 71 2.4 NNW 19 28 10 15 1016.7 1016.7 0.0
21/02:00am 10.6 7.2 5.8 72 2.2 NNW 13 24 7 13 1017.0 1017.0 0.0
21/01:30am 11.0 6.7 5.3 68 2.6 NW 17 24 9 13 1017.2 1017.2 0.0
21/01:00am 11.3 7.5 5.6 68 2.6 NNW 15 22 8 12 1017.1 1017.1 0.0
21/12:30am 10.2 8.4 5.6 73 2.1 NNW 4 11 2 6 1016.9 1016.9 0.0
21/12:00am 10.2 8.4 5.2 71 2.3 NW 4 9 2 5 1016.7 1016.7 0.0
 
Date/Time
EST
Temp
°C
App
Temp
°C
Dew
Point
°C
Rel
Hum
%
Delta-T
°C
Wind Press
QNH
hPa
Press
MSL
hPa
Rain since
9am
mm
Dir  Spd
km/h
Gust
km/h
Spd
kts
Gust
kts
20/11:30pm 11.0 8.8 5.5 69 2.5 SW 6 9 3 5 1016.7 1016.7 0.0
20/11:00pm 10.9 8.5 5.2 68 2.6 SW 7 11 4 6 1016.8 1016.8 0.0
20/10:30pm 11.7 8.2 5.6 66 2.8 NNW 13 24 7 13 1016.7 1016.7 0.0
20/10:00pm 11.9 8.4 5.5 65 3.0 NW 13 20 7 11 1016.8 1016.8 0.0
20/09:30pm 12.4 6.8 5.6 63 3.2 NW 24 33 13 18 1016.5 1016.5 0.0
20/09:00pm 12.3 7.0 5.2 62 3.3 NNW 22 32 12 17 1016.2 1016.2 0.0
20/08:30pm 12.6 7.4 5.3 61 3.4 N 22 32 12 17 1016.1 1016.1 0.0
20/08:00pm 12.6 7.9 5.1 60 3.5 NNW 19 28 10 15 1015.9 1015.9 0.0
20/07:30pm 12.8 7.9 5.0 59 3.6 NNW 20 33 11 18 1015.5 1015.5 0.0
20/07:00pm 12.9 7.1 4.6 57 3.8 NW 24 37 13 20 1015.3 1015.3 0.0
20/06:30pm 12.9 7.1 4.6 57 3.8 NW 24 35 13 19 1015.1 1015.1 0.0
20/06:00pm 13.3 7.6 5.0 57 3.9 NW 24 37 13 20 1014.7 1014.7 0.0
20/05:30pm 13.7 6.5 4.8 55 4.1 NW 32 39 17 21 1014.4 1014.4 0.0
20/05:00pm 14.1 8.4 4.9 54 4.3 NNW 24 39 13 21 1014.1 1014.1 0.0
20/04:30pm 14.8 7.6 5.1 52 4.6 NNW 32 48 17 26 1013.7 1013.7 0.0
20/04:22pm 14.6 8.2 5.1 53 4.5 NNW 28 48 15 26 1013.6 1013.6 0.0
20/04:00pm 14.9 9.2 4.9 51 4.7 NW 24 39 13 21 1013.3 1013.3 0.0
20/03:30pm 14.9 8.0 4.6 50 4.8 NNW 30 43 16 23 1013.1 1013.1 0.0
20/03:00pm 14.7 9.0 4.7 51 4.7 NNW 24 35 13 19 1013.3 1013.3 0.0
20/02:30pm 14.4 9.0 4.7 52 4.5 NNW 22 32 12 17 1013.1 1013.1 0.0
20/02:00pm 14.6 7.7 4.6 51 4.7 NW 30 46 16 25 1013.0 1013.0 0.0
20/01:55pm 14.9 8.4 4.6 50 4.8 NW 28 46 15 25 1012.9 1012.9 0.0
20/01:30pm 15.1 9.8 4.8 50 4.8 NW 22 35 12 19 1012.9 1012.9 0.0
20/01:00pm 14.8 9.4 4.5 50 4.8 NW 22 37 12 20 1013.1 1013.1 0.0
20/12:30pm 15.7 9.1 4.4 47 5.3 NW 28 43 15 23 1012.9 1012.9 0.0
20/12:00pm 14.7 9.5 3.8 48 5.0 NW 20 32 11 17 1013.0 1013.0 0.0
20/11:30am 14.0 8.7 3.2 48 4.9 NW 20 35 11 19 1013.6 1013.6 0.0
20/11:00am 13.6 7.7 3.7 51 4.5 NNW 24 41 13 22 1013.2 1013.2 0.0
20/10:30am 12.5 6.0 2.9 52 4.2 NNW 26 41 14 22 1013.3 1013.3 0.0
20/10:00am 12.3 5.9 3.3 54 4.0 NNW 26 39 14 21 1013.3 1013.3 0.0
20/09:30am 12.1 6.1 3.1 54 4.0 NNW 24 39 13 21 1013.3 1013.3 0.0
20/09:00am 11.5 7.2 3.0 56 3.7 N 15 24 8 13 1013.7 1013.7 0.8
20/08:30am 10.6 6.2 2.7 58 3.4 N 15 20 8 11 1013.7 1013.7 0.8
20/08:00am 9.3 4.1 2.6 63 2.8 N 19 26 10 14 1013.7 1013.7 0.8
20/07:30am 8.2 3.3 2.0 65 2.6 NW 17 28 9 15 1013.0 1013.0 0.8
20/07:00am 7.1 3.3 2.0 70 2.1 WNW 11 20 6 11 1012.6 1012.6 0.8
20/06:30am 5.9 1.2 1.1 71 1.9 WNW 15 30 8 16 1012.4 1012.4 0.8
20/06:00am 6.0 0.1 1.5 73 1.8 NW 22 41 12 22 1012.2 1012.2 0.8
20/05:30am 4.8 1.8 1.1 77 1.4 S 6 13 3 7 1012.7 1012.7 0.8
20/05:00am 5.1 2.1 0.7 73 1.7 N 6 13 3 7 1012.3 1012.3 0.8
20/04:30am 5.5 1.2 0.9 72 1.8 N 13 20 7 11 1012.2 1012.2 0.8
20/04:00am 4.5 1.3 0.5 75 1.5 SSE 7 13 4 7 1012.6 1012.6 0.8
20/03:30am 5.7 1.4 0.9 71 1.9 N 13 20 7 11 1012.5 1012.5 0.8
20/03:00am 4.2 1.0 0.9 79 1.3 NNW 7 13 4 7 1012.4 1012.4 0.8
20/02:30am 4.5 1.5 0.8 77 1.4 NW 6 11 3 6 1012.7 1012.7 0.8
20/02:00am 4.2 0.9 0.2 75 1.5 W 7 11 4 6 1012.7 1012.7 0.8
20/01:30am 4.3 0.7 0.5 76 1.5 NW 9 20 5 11 1012.9 1012.9 0.8
20/01:00am 4.5 2.2 0.1 73 1.7 NW 2 9 1 5 1013.0 1013.0 0.8
20/12:30am 4.8 1.1 0.0 71 1.8 W 9 13 5 7 1013.0 1013.0 0.8
20/12:00am 4.8 1.1 -0.2 70 1.9 WSW 9 11 5 6 1013.1 1013.1 0.8
 
Date/Time
EST
Temp
°C
App
Temp
°C
Dew
Point
°C
Rel
Hum
%
Delta-T
°C
Wind Press
QNH
hPa
Press
MSL
hPa
Rain since
9am
mm
Dir  Spd
km/h
Gust
km/h
Spd
kts
Gust
kts
19/11:30pm 5.3 2.0 -0.1 68 2.1 W 7 13 4 7 1013.1 1013.1 0.8
19/11:00pm 5.7 2.0 -0.1 66 2.2 SW 9 17 5 9 1013.2 1013.2 0.8
19/10:30pm 6.3 3.0 0.0 64 2.4 WNW 7 15 4 8 1013.1 1013.1 0.8
19/10:00pm 6.2 2.9 -0.1 64 2.4 WNW 7 13 4 7 1013.0 1013.0 0.8
19/09:30pm 7.1 2.9 -0.8 57 3.0 W 11 19 6 10 1012.8 1012.8 0.8
19/09:00pm 6.8 3.9 -0.9 58 2.9 WNW 4 11 2 6 1012.8 1012.8 0.8
19/08:30pm 7.6 3.0 -0.8 55 3.2 SW 13 22 7 12 1012.6 1012.6 0.8
19/08:00pm 7.1 3.4 -0.1 60 2.8 WSW 9 15 5 8 1012.0 1012.0 0.8
19/07:30pm 7.5 3.4 0.0 59 2.9 WSW 11 15 6 8 1011.6 1011.6 0.8
19/07:00pm 7.9 3.4 -0.1 57 3.1 SW 13 20 7 11 1011.1 1011.1 0.8
19/06:30pm 8.2 3.4 0.0 56 3.2 WSW 15 20 8 11 1010.7 1010.7 0.8
19/06:00pm 9.0 4.5 -0.3 52 3.7 SW 13 20 7 11 1010.1 1010.2 0.8
19/05:30pm 9.7 3.0 -0.8 48 4.1 SW 24 32 13 17 1009.5 1009.6 0.8
19/05:00pm 10.8 4.9 -0.9 44 4.7 SW 20 33 11 18 1009.1 1009.2 0.8
19/04:30pm 10.9 4.3 -0.5 45 4.6 WSW 24 35 13 19 1008.7 1008.8 0.8
19/04:00pm 10.8 5.8 1.4 52 4.0 S 17 28 9 15 1008.4 1008.5 0.8
19/03:30pm 10.0 5.6 2.8 61 3.1 SSE 15 20 8 11 1008.3 1008.4 0.8
19/03:00pm 12.0 7.3 3.0 54 4.0 SW 17 32 9 17 1008.1 1008.2 0.8
19/02:30pm 10.4 5.0 1.5 54 3.7 WSW 19 28 10 15 1007.9 1008.0 0.8
19/02:00pm 9.3 3.7 3.7 68 2.4 S 22 30 12 16 1007.7 1007.8 0.8
19/01:30pm 9.3 5.2 4.1 70 2.3 S 15 24 8 13 1007.5 1007.6 0.8
19/01:00pm 8.9 4.6 5.1 77 1.7 SW 17 33 9 18 1007.6 1007.7 0.8
19/12:32pm 9.8 3.1 3.8 66 2.6 S 28 46 15 25 1007.4 1007.5 0.2
19/12:30pm 10.4 4.2 4.3 66 2.7 S 26 43 14 23 1007.4 1007.5 0.2
19/12:00pm 10.8 6.2 3.6 61 3.2 SE 17 32 9 17 1007.0 1007.1 0.2
19/11:30am 14.4 9.9 2.3 44 5.4 WNW 15 24 8 13 1006.4 1006.5 0.2
19/11:00am 11.6 7.0 1.5 50 4.3 SW 15 28 8 15 1006.5 1006.6 0.0
19/10:30am 12.6 8.8 1.9 48 4.6 SW 11 24 6 13 1006.4 1006.5 0.0
19/10:00am 10.6 4.6 0.9 51 4.0 SW 22 39 12 21 1006.4 1006.5 0.0
19/09:30am 11.1 6.1 1.1 50 4.2 SW 17 30 9 16 1006.2 1006.3 0.0
19/09:00am 11.2 7.6 3.0 57 3.6 WNW 11 20 6 11 1006.1 1006.2 0.8
19/08:30am 9.2 4.8 2.5 63 2.8 N 15 24 8 13 1005.8 1005.9 0.8
19/08:00am 9.2 4.7 2.3 62 2.9 NNW 15 20 8 11 1005.5 1005.6 0.8
19/07:30am 8.5 3.2 2.1 64 2.7 NNW 19 24 10 13 1005.2 1005.3 0.8
19/07:00am 6.5 4.8 2.0 73 1.8 CALM 0 6 0 3 1004.9 1005.0 0.8
19/06:30am 4.7 1.6 1.2 78 1.4 SSW 7 13 4 7 1004.8 1004.9 0.8
19/06:00am 6.2 1.3 1.7 73 1.8 NW 17 22 9 12 1004.2 1004.3 0.8
19/05:30am 6.4 3.6 1.9 73 1.8 WNW 6 11 3 6 1004.4 1004.5 0.8
19/05:00am 6.7 1.2 2.0 72 1.9 NW 20 41 11 22 1003.8 1003.9 0.8
19/04:30am 7.0 0.4 1.9 70 2.1 NNW 26 35 14 19 1003.7 1003.8 0.8
19/04:00am 7.2 1.0 1.9 69 2.2 NW 24 32 13 17 1003.8 1003.9 0.8
19/03:30am 7.2 1.4 2.1 70 2.1 NW 22 32 12 17 1003.7 1003.8 0.8
19/03:00am 7.5 1.3 2.2 69 2.2 NNW 24 35 13 19 1003.6 1003.7 0.8
19/02:30am 7.8 2.0 2.1 67 2.4 NNW 22 32 12 17 1003.3 1003.4 0.8
19/02:00am 7.8 2.0 2.3 68 2.3 NNW 22 33 12 18 1003.7 1003.8 0.8
19/01:30am 8.0 1.9 2.5 68 2.3 N 24 32 13 17 1003.4 1003.5 0.8
19/01:00am 8.2 2.0 2.4 67 2.4 N 24 33 13 18 1004.0 1004.1 0.8
19/12:30am 8.6 2.4 2.2 64 2.7 NNW 24 33 13 18 1004.2 1004.3 0.8
19/12:00am 8.5 3.0 1.9 63 2.8 NNW 20 32 11 17 1004.0 1004.1 0.8
 
Date/Time
EST
Temp
°C
App
Temp
°C
Dew
Point
°C
Rel
Hum
%
Delta-T
°C
Wind Press
QNH
hPa
Press
MSL
hPa
Rain since
9am
mm
Dir  Spd
km/h
Gust
km/h
Spd
kts
Gust
kts
18/11:30pm 8.5 2.3 1.9 63 2.7 NW 24 35 13 19 1003.6 1003.7 0.8
18/11:00pm 9.0 3.1 1.9 61 3.0 NNW 22 28 12 15 1003.8 1003.9 0.8
18/10:30pm 9.4 3.9 2.0 60 3.1 N 20 24 11 13 1003.9 1004.0 0.8
18/10:00pm 9.5 4.7 2.6 62 3.0 NW 17 24 9 13 1003.9 1004.0 0.8
18/09:30pm 10.1 6.1 2.7 60 3.2 NNW 13 20 7 11 1003.9 1004.0 0.8
18/09:00pm 10.3 6.0 3.1 61 3.1 NNW 15 24 8 13 1003.8 1003.9 0.8
18/08:30pm 10.5 5.4 3.3 61 3.1 N 19 26 10 14 1003.3 1003.4 0.8
18/08:00pm 10.5 4.1 3.3 61 3.2 NNW 26 37 14 20 1002.9 1003.0 0.8
18/07:30pm 10.4 4.8 3.4 62 3.1 NNW 22 33 12 18 1002.7 1002.8 0.8
18/07:00pm 10.7 5.7 3.5 61 3.2 NNW 19 32 10 17 1002.2 1002.3 0.8
18/06:30pm 10.8 5.1 3.1 59 3.4 WNW 22 33 12 18 1001.7 1001.7 0.8
18/06:00pm 11.1 5.2 3.9 61 3.2 NW 24 37 13 20 1001.3 1001.3 0.8
18/05:30pm 12.2 7.4 5.4 63 3.2 WNW 20 37 11 20 1001.1 1001.1 0.8
18/05:00pm 13.1 7.6 6.0 62 3.4 NW 24 41 13 22 1000.3 1000.3 0.8
18/04:30pm 12.5 5.9 5.9 64 3.1 NNW 30 39 16 21 1000.1 1000.1 0.8
18/04:00pm 12.8 5.9 6.4 65 3.1 NNW 32 43 17 23 1000.0 1000.0 0.8
18/03:30pm 13.3 8.9 7.3 67 2.9 NNW 20 33 11 18 999.9 999.9 0.8
18/03:00pm 12.7 5.2 6.5 66 3.0 W 35 61 19 33 999.7 999.7 0.0
18/02:30pm 15.4 5.7 5.9 53 4.6 WNW 46 72 25 39 998.8 998.8 0.0
18/02:00pm 18.1 9.4 2.0 34 7.4 WNW 37 63 20 34 997.6 997.6 0.0
18/01:59pm 18.2 9.5 2.1 34 7.3 WNW 37 63 20 34 997.7 997.7 0.0
18/01:30pm 19.3 10.3 2.2 32 7.9 NW 39 57 21 31 997.6 997.6 0.0
18/01:04pm 20.0 10.4 1.4 29 8.5 NNW 41 59 22 32 997.3 997.3 0.0
18/01:00pm 20.5 11.3 1.4 28 8.8 NNW 39 56 21 30 997.3 997.3 0.0
18/12:30pm 20.7 12.3 1.6 28 8.8 NNW 35 63 19 34 997.6 997.6 0.0

Other Formats:

Comma delimited format used in spreadsheet applications
http://www.bom.gov.au/fwo/IDT60801/IDT60801.94970.axf

JavaScript Object Notation format (JSON) in row-major order
http://www.bom.gov.au/fwo/IDT60801/IDT60801.94970.json